Impacts METAR Board
IDs:

KPIT - Pittsburgh Intl, PA, US

Updated at: 2200 UTC 19 Jun 2018
Potential Impact None Slight Moderate High
Time 19/10Z 19/11Z 19/12Z 19/13Z 19/14Z 19/15Z 19/16Z 19/17Z 19/18Z 19/19Z 19/20Z 19/21Z 19/22Z
Temp74 75 75 76 76 75 76 79 79 80 80 80 79
Dewpt71 71 71 71 72 70 69 69 68 68 68 66 65
Altim29.93 29.95 29.95 29.95 29.95 29.96 29.96 29.96 29.96 29.95 29.93 29.93 29.93
VIS10 10 10 10 8 10 10 10 10 10 10 10 10
CIG42 33 100 30 12 18 20 23 34 38 43 47 40
CoverBKNOVCOVCOVCOVCOVCOVCOVCOVCOVCBKNBKNBKN
FltCatVFRVFRVFRMVFRMVFRMVFRMVFRMVFRVFRVFRVFRVFRVFR
WX---------DZ----------------
WDir250260240310320340320320310340360330320
WSpd4 5 4 10 11 10 9 9 10 12 9 10 8
WGst-- -- -- -- -- -- -- -- -- -- -- -- --
Raw hourly METARs
KPIT 190951Z 25004KT 10SM FEW028 BKN042 BKN100 BKN250 23/22 A2993 RMK AO2 SLP131 T02330217
KPIT 191051Z 26005KT 10SM SCT025 BKN033 OVC100 24/22 A2995 RMK AO2 SLP138 T02390217
KPIT 191151Z 24004KT 10SM FEW020 SCT026 OVC100 24/22 A2995 RMK AO2 DZB34E46 SLP137 BINOVC P0000 60000 T02390217 10272 20233 50010
KPIT 191251Z 31010KT 10SM SCT013 BKN030 OVC090 24/22 A2995 RMK AO2 SLP137 BINOVC T02440217
KPIT 191351Z 32011KT 8SM -DZ BKN012 BKN018 OVC030 24/22 A2995 RMK AO2 DZB47 SLP137 P0000 T02440222
KPIT 191451Z 34010KT 10SM FEW010 BKN018 OVC032 24/21 A2996 RMK AO2 DZE28 SLP142 BINOVC P0000 60000 T02390211 53004
KPIT 191551Z 32009KT 10SM SCT015 BKN020 OVC031 24/21 A2996 RMK AO2 SLP143 T02440206
KPIT 191651Z 32009KT 10SM FEW017 BKN023 OVC041 26/21 A2996 RMK AO2 SLP142 T02610206
KPIT 191751Z 31010KT 10SM SCT021 BKN034 OVC045 26/20 A2996 RMK AO2 SLP141 60000 T02610200 10278 20228 50000
KPIT 191851Z 34012KT 10SM SCT024 BKN038 OVC044 27/20 A2995 RMK AO2 SLP137 BINOVC T02670200
KPIT 191951Z 36009KT 10SM SCT027 BKN043 BKN110 27/20 A2993 RMK AO2 SLP132 T02670200
KPIT 192051Z 33010KT 10SM SCT032 BKN047 BKN150 27/19 A2993 RMK AO2 SLP132 T02670189 56009
KPIT 192151Z 32008KT 10SM FEW032 BKN040 BKN150 26/18 A2993 RMK AO2 SLP132 T02610183



Page loaded:  22:07 UTC  |   03:07 PM Pacific  |   04:07 PM Mountain  |   05:07 PM Central  |   06:07 PM Eastern

 

ADVISORIES

FORECASTS

FORECASTS

OBSERVATIONS

USER TOOLS

ABOUT US